createdAt,value
2023-03-04T00:01:50.824Z,77.00
2023-03-04T00:04:18.574Z,77.28
2023-03-04T00:06:46.088Z,76.10
2023-03-04T00:09:13.581Z,78.53
2023-03-04T00:11:40.993Z,82.68
2023-03-04T00:14:08.417Z,76.60
2023-03-04T00:16:35.980Z,76.95
2023-03-04T00:19:03.544Z,73.47
2023-03-04T00:21:31.039Z,76.90
2023-03-04T00:23:58.494Z,84.90
2023-03-04T00:26:26.063Z,75.88
2023-03-04T00:28:53.581Z,78.47
2023-03-04T00:31:21.364Z,80.60
2023-03-04T00:33:48.736Z,80.18
2023-03-04T00:36:16.265Z,75.95
2023-03-04T00:38:43.665Z,75.32
2023-03-04T00:41:11.110Z,78.07
2023-03-04T00:43:38.600Z,77.88
2023-03-04T00:46:07.229Z,80.10
2023-03-04T00:48:34.909Z,79.72
2023-03-04T00:51:02.346Z,82.20
2023-03-04T00:53:29.868Z,76.97
2023-03-04T00:55:57.325Z,80.90
2023-03-04T00:58:24.797Z,81.68
2023-03-04T01:00:52.235Z,76.47
2023-03-04T01:03:19.713Z,82.15
2023-03-04T01:05:47.095Z,77.25
2023-03-04T01:08:14.593Z,77.88
2023-03-04T01:10:42.104Z,80.30
2023-03-04T01:13:09.634Z,77.55
2023-03-04T01:15:37.033Z,75.10
2023-03-04T01:18:06.361Z,75.95
2023-03-04T01:20:33.840Z,76.45
2023-03-04T01:23:01.400Z,74.57
2023-03-04T01:25:28.767Z,73.68
2023-03-04T01:27:56.215Z,71.28
2023-03-04T01:30:23.625Z,70.95
2023-03-04T01:32:51.485Z,67.97
2023-03-04T01:35:18.968Z,67.68
2023-03-04T01:37:46.456Z,66.60
2023-03-04T01:40:14.504Z,65.90
2023-03-04T01:42:42.384Z,68.47
2023-03-04T01:45:13.847Z,69.38
2023-03-04T01:47:43.677Z,65.88
2023-03-04T01:50:14.915Z,74.75
2023-03-04T01:52:43.031Z,67.57
2023-03-04T01:55:15.847Z,72.30
2023-03-04T01:57:43.377Z,65.90
2023-03-04T02:00:26.101Z,64.70
2023-03-04T02:02:54.780Z,65.50
2023-03-04T02:05:22.822Z,67.43
2023-03-04T02:07:52.239Z,60.65
2023-03-04T02:10:20.143Z,64.18
2023-03-04T02:12:47.809Z,60.53
2023-03-04T02:15:15.249Z,62.65
2023-03-04T02:17:42.720Z,65.85
2023-03-04T02:20:10.379Z,70.18
2023-03-04T02:22:39.782Z,67.40
2023-03-04T02:25:11.209Z,69.97
2023-03-04T02:27:38.706Z,66.38
2023-03-04T02:30:06.784Z,69.28
2023-03-04T02:32:34.377Z,62.63
2023-03-04T02:35:01.976Z,63.95
2023-03-04T02:37:29.531Z,67.18
2023-03-04T02:39:57.257Z,63.38
2023-03-04T02:42:24.798Z,60.85
2023-03-04T02:45:00.513Z,61.38
2023-03-04T02:47:28.224Z,61.92
2023-03-04T02:49:56.228Z,65.07
2023-03-04T02:52:25.755Z,62.80
2023-03-04T02:54:53.222Z,65.85
2023-03-04T02:57:21.024Z,58.90
2023-03-04T02:59:53.253Z,65.28
2023-03-04T03:02:23.990Z,61.58
2023-03-04T03:04:51.947Z,62.50
2023-03-04T03:07:21.145Z,67.93
2023-03-04T03:09:49.214Z,68.38
2023-03-04T03:12:18.554Z,69.13
2023-03-04T03:14:46.020Z,67.82
2023-03-04T03:17:15.931Z,67.85
2023-03-04T03:19:43.423Z,64.50
2023-03-04T03:22:11.442Z,62.90
2023-03-04T03:24:38.898Z,59.40
2023-03-04T03:27:06.313Z,59.60
2023-03-04T03:29:34.392Z,60.53
2023-03-04T03:32:01.826Z,60.88
2023-03-04T03:34:29.438Z,63.88
2023-03-04T03:36:56.939Z,63.25
2023-03-04T03:39:24.300Z,58.25
2023-03-04T03:41:51.838Z,61.72
2023-03-04T03:44:19.291Z,64.00
2023-03-04T03:46:47.268Z,62.63
2023-03-04T03:49:14.688Z,69.38
2023-03-04T03:51:42.053Z,67.07
2023-03-04T03:54:09.749Z,67.47
2023-03-04T03:56:37.124Z,66.93
2023-03-04T03:59:04.708Z,69.70
2023-03-04T04:01:33.606Z,66.05
2023-03-04T04:04:01.580Z,68.25
2023-03-04T04:06:29.000Z,73.50
2023-03-04T04:08:56.865Z,69.03
2023-03-04T04:11:24.356Z,69.47
2023-03-04T04:13:51.893Z,65.25
2023-03-04T04:16:19.341Z,88.35
2023-03-04T04:18:46.910Z,72.57
2023-03-04T04:21:14.921Z,76.13
2023-03-04T04:23:42.423Z,66.10
2023-03-04T04:26:09.775Z,62.83
2023-03-04T04:28:37.209Z,62.10
2023-03-04T04:31:07.947Z,59.92
2023-03-04T04:33:37.613Z,60.88
2023-03-04T04:36:07.396Z,61.00
2023-03-04T04:38:34.860Z,61.90
2023-03-04T04:41:02.329Z,56.88
2023-03-04T04:43:29.759Z,58.78
2023-03-04T04:46:00.164Z,58.90
2023-03-04T04:48:27.849Z,56.80
2023-03-04T04:50:56.329Z,58.03
2023-03-04T04:53:23.890Z,56.90
2023-03-04T04:55:51.272Z,59.78
2023-03-04T04:58:18.708Z,60.28
2023-03-04T05:00:46.078Z,58.60
2023-03-04T05:03:13.498Z,65.75
2023-03-04T05:05:40.907Z,59.80
2023-03-04T05:08:08.395Z,59.83
2023-03-04T05:10:35.797Z,55.42
2023-03-04T05:13:03.237Z,61.05
2023-03-04T05:15:30.719Z,51.35
2023-03-04T05:17:58.430Z,52.45
2023-03-04T05:20:27.188Z,50.00
2023-03-04T05:22:54.794Z,49.63
2023-03-04T05:25:22.330Z,46.63
2023-03-04T05:27:49.739Z,50.65
2023-03-04T05:30:17.193Z,51.25
2023-03-04T05:32:44.663Z,46.95
2023-03-04T05:35:12.200Z,48.70
2023-03-04T05:37:39.649Z,47.15
2023-03-04T05:40:07.384Z,45.33
2023-03-04T05:42:34.833Z,46.10
2023-03-04T05:45:04.374Z,47.20
2023-03-04T05:47:31.861Z,48.08
2023-03-04T05:49:59.290Z,46.00
2023-03-04T05:52:26.716Z,48.22
2023-03-04T05:54:54.062Z,51.50
2023-03-04T05:57:21.509Z,48.22
2023-03-04T05:59:48.972Z,45.13
2023-03-04T06:02:16.478Z,45.28
2023-03-04T06:04:43.914Z,44.67
2023-03-04T06:07:11.325Z,43.65
2023-03-04T06:09:38.740Z,52.97
2023-03-04T06:12:06.284Z,52.97
2023-03-04T06:14:33.736Z,53.03
2023-03-04T06:17:01.258Z,56.60
2023-03-04T06:19:28.715Z,46.13
2023-03-04T06:21:56.215Z,49.28
2023-03-04T06:24:23.710Z,42.80
2023-03-04T06:26:51.153Z,45.70
2023-03-04T06:29:18.528Z,39.63
2023-03-04T06:31:46.069Z,42.38
2023-03-04T06:34:13.526Z,42.38
2023-03-04T06:36:40.989Z,51.05
2023-03-04T06:39:08.578Z,49.63
2023-03-04T06:41:36.413Z,50.38
2023-03-04T06:44:03.943Z,50.35
2023-03-04T06:46:31.376Z,51.78
2023-03-04T06:48:59.026Z,49.85
2023-03-04T06:51:26.468Z,46.60
2023-03-04T06:53:53.905Z,40.15
2023-03-04T06:56:21.358Z,40.70
2023-03-04T06:58:48.877Z,44.70
2023-03-04T07:01:17.621Z,42.15
2023-03-04T07:03:45.279Z,39.72
2023-03-04T07:06:14.193Z,44.50
2023-03-04T07:08:42.411Z,39.00
2023-03-04T07:11:10.212Z,34.00
2023-03-04T07:13:40.714Z,35.88
2023-03-04T07:16:09.962Z,36.78
2023-03-04T07:18:37.947Z,34.42
2023-03-04T07:21:06.628Z,36.17
2023-03-04T07:23:34.119Z,33.80
2023-03-04T07:26:01.557Z,34.88
2023-03-04T07:28:29.099Z,40.40
2023-03-04T07:30:56.483Z,38.65
2023-03-04T07:33:23.995Z,40.45
2023-03-04T07:35:59.173Z,43.75
2023-03-04T07:38:26.679Z,45.65
2023-03-04T07:40:57.878Z,46.17
2023-03-04T07:43:25.325Z,45.78
2023-03-04T07:45:52.764Z,43.08
2023-03-04T07:48:20.238Z,40.25
2023-03-04T07:50:47.690Z,40.05
2023-03-04T07:53:15.094Z,39.40
2023-03-04T07:55:42.549Z,39.78
2023-03-04T07:58:09.932Z,44.65
2023-03-04T08:00:37.357Z,45.47
2023-03-04T08:03:04.747Z,42.72
2023-03-04T08:05:32.228Z,48.20
2023-03-04T08:07:59.955Z,45.60
2023-03-04T08:10:27.487Z,43.45
2023-03-04T08:12:54.891Z,40.45
2023-03-04T08:15:22.322Z,42.42
2023-03-04T08:17:49.712Z,39.30
2023-03-04T08:20:17.212Z,38.88
2023-03-04T08:22:44.586Z,42.22
2023-03-04T08:25:12.077Z,42.75
2023-03-04T08:27:39.534Z,41.88
2023-03-04T08:30:07.285Z,42.92
2023-03-04T08:32:34.734Z,43.50
2023-03-04T08:35:02.533Z,45.40
2023-03-04T08:37:32.888Z,45.88
2023-03-04T08:40:00.284Z,48.63
2023-03-04T08:42:27.806Z,44.05
2023-03-04T08:44:55.277Z,43.45
2023-03-04T08:47:22.676Z,46.50
2023-03-04T08:49:50.140Z,42.58
2023-03-04T08:52:17.501Z,44.47
2023-03-04T08:54:45.009Z,44.63
2023-03-04T08:57:12.578Z,42.53
2023-03-04T08:59:40.092Z,46.22
2023-03-04T09:02:07.794Z,46.70
2023-03-04T09:04:35.265Z,47.33
2023-03-04T09:07:02.779Z,45.13
2023-03-04T09:09:30.162Z,45.22
2023-03-04T09:11:57.815Z,45.08
2023-03-04T09:14:27.293Z,45.60
2023-03-04T09:16:54.797Z,45.78
2023-03-04T09:19:22.246Z,38.97
2023-03-04T09:21:49.695Z,45.92
2023-03-04T09:24:17.288Z,49.70
2023-03-04T09:26:45.969Z,43.88
2023-03-04T09:29:13.378Z,44.13
2023-03-04T09:31:40.877Z,45.67
2023-03-04T09:34:08.274Z,41.92
2023-03-04T09:36:35.814Z,43.92
2023-03-04T09:39:04.477Z,43.00
2023-03-04T09:41:55.910Z,40.30
2023-03-04T09:44:23.358Z,40.03
2023-03-04T09:46:51.978Z,39.40
2023-03-04T09:49:20.695Z,40.50
2023-03-04T09:52:04.145Z,41.10
2023-03-04T09:54:51.967Z,38.03
2023-03-04T09:57:22.374Z,43.35
2023-03-04T09:59:58.572Z,42.85
2023-03-04T10:02:34.246Z,44.22
2023-03-04T10:05:04.352Z,36.78
2023-03-04T10:07:37.274Z,38.22
2023-03-04T10:10:07.910Z,42.17
2023-03-04T10:12:37.060Z,41.15
2023-03-04T10:15:07.316Z,39.83
2023-03-04T10:17:39.365Z,38.67
2023-03-04T10:20:08.939Z,41.00
2023-03-04T10:22:42.492Z,35.33
2023-03-04T10:25:18.307Z,37.50
2023-03-04T10:28:05.809Z,37.08
2023-03-04T10:30:45.354Z,32.63
2023-03-04T10:33:13.949Z,37.03
2023-03-04T10:35:44.024Z,38.55
2023-03-04T10:38:13.814Z,34.75
2023-03-04T10:40:42.058Z,37.95
2023-03-04T10:43:22.847Z,36.10
2023-03-04T10:45:55.502Z,34.00
2023-03-04T10:48:27.814Z,34.22
2023-03-04T10:50:55.734Z,37.38
2023-03-04T10:53:26.303Z,38.20
2023-03-04T10:55:53.775Z,37.28
2023-03-04T10:58:21.887Z,38.28
2023-03-04T11:01:00.696Z,36.70
2023-03-04T11:03:29.956Z,35.55
2023-03-04T11:06:05.573Z,36.75
2023-03-04T11:08:33.085Z,39.80
2023-03-04T11:11:00.613Z,44.20
2023-03-04T11:13:28.095Z,37.58
2023-03-04T11:16:22.895Z,33.08
2023-03-04T11:18:54.570Z,35.60
2023-03-04T11:21:23.146Z,31.48
2023-03-04T11:24:01.341Z,34.28
2023-03-04T11:26:43.895Z,33.97
2023-03-04T11:29:21.412Z,33.17
2023-03-04T11:31:58.285Z,32.08
2023-03-04T11:34:32.785Z,32.38
2023-03-04T11:37:05.439Z,33.40
2023-03-04T11:39:35.945Z,35.13
2023-03-04T11:42:23.718Z,33.00
2023-03-04T11:44:51.704Z,31.45
2023-03-04T11:47:19.084Z,33.03
2023-03-04T11:49:49.586Z,32.42
2023-03-04T11:52:20.138Z,35.33
2023-03-04T11:54:47.597Z,34.58
2023-03-04T11:57:33.389Z,32.58
2023-03-04T12:00:17.208Z,35.65
2023-03-04T12:02:49.590Z,28.95
2023-03-04T12:05:17.396Z,31.80
2023-03-04T12:07:44.778Z,31.73
2023-03-04T12:10:18.407Z,30.88
2023-03-04T12:13:01.292Z,34.70
2023-03-04T12:15:43.120Z,38.65
2023-03-04T12:18:28.724Z,32.45
2023-03-04T12:23:29.235Z,27.25
2023-03-04T12:26:02.704Z,31.98
2023-03-04T12:28:30.084Z,30.00
2023-03-04T12:30:57.478Z,26.27
2023-03-04T12:33:24.919Z,26.52
2023-03-04T12:35:58.456Z,29.15
2023-03-04T12:38:28.936Z,27.90
2023-03-04T12:40:56.429Z,28.67
2023-03-04T12:43:29.827Z,27.55
2023-03-04T12:46:09.415Z,25.73
2023-03-04T12:48:57.142Z,25.65
2023-03-04T12:51:36.672Z,25.77
2023-03-04T12:54:10.173Z,24.50
2023-03-04T12:56:51.286Z,23.08
2023-03-04T12:59:20.320Z,24.92
2023-03-04T13:02:07.231Z,22.48
2023-03-04T13:04:53.198Z,30.30
2023-03-04T13:07:37.683Z,24.15
2023-03-04T13:10:17.160Z,20.15
2023-03-04T13:12:52.094Z,18.17
2023-03-04T13:15:22.432Z,17.73
2023-03-04T13:17:51.082Z,20.75
2023-03-04T13:20:39.116Z,23.45
2023-03-04T13:23:09.657Z,23.90
2023-03-04T13:25:44.446Z,22.08
2023-03-04T13:28:12.865Z,20.85
2023-03-04T13:30:40.312Z,20.33
2023-03-04T13:33:16.475Z,21.85
2023-03-04T13:35:49.737Z,21.05
2023-03-04T13:38:36.429Z,21.70
2023-03-04T13:41:18.838Z,27.60
2023-03-04T13:43:52.106Z,21.92
2023-03-04T13:46:19.657Z,31.15
2023-03-04T13:48:53.078Z,21.38
2023-03-04T13:51:29.286Z,22.83
2023-03-04T13:54:00.776Z,27.85
2023-03-04T13:56:41.339Z,22.63
2023-03-04T13:59:08.789Z,20.92
2023-03-04T14:01:37.625Z,20.35
2023-03-04T14:04:17.558Z,23.02
2023-03-04T14:06:46.002Z,18.70
2023-03-04T14:09:15.016Z,20.40
2023-03-04T14:11:42.951Z,24.13
2023-03-04T14:14:15.075Z,23.30
2023-03-04T14:16:50.223Z,25.35
2023-03-04T14:19:28.560Z,22.58
2023-03-04T14:21:56.730Z,21.60
2023-03-04T14:24:24.705Z,21.42
2023-03-04T14:27:04.410Z,20.80
2023-03-04T14:29:32.508Z,19.95
2023-03-04T14:32:01.289Z,21.08
2023-03-04T14:34:33.299Z,20.17
2023-03-04T14:37:00.917Z,20.70
2023-03-04T14:39:31.319Z,20.17
2023-03-04T14:42:02.124Z,18.00
2023-03-04T14:44:37.921Z,24.20
2023-03-04T14:47:18.448Z,23.27
2023-03-04T14:49:46.220Z,19.60
2023-03-04T14:52:32.619Z,19.38
2023-03-04T14:55:01.461Z,23.67
2023-03-04T14:57:32.425Z,23.05
2023-03-04T15:00:14.844Z,19.20
2023-03-04T15:02:42.872Z,24.80
2023-03-04T15:05:22.654Z,19.63
2023-03-04T15:07:54.735Z,21.65
2023-03-04T15:10:23.943Z,22.73
2023-03-04T15:12:52.724Z,25.38
2023-03-04T15:15:38.294Z,21.10
2023-03-04T15:18:16.554Z,18.42
2023-03-04T15:20:52.917Z,17.40
2023-03-04T15:23:20.345Z,22.40
2023-03-04T15:25:51.386Z,21.17
2023-03-04T15:28:19.520Z,22.10
2023-03-04T15:30:47.127Z,20.90
2023-03-04T15:33:14.919Z,25.60
2023-03-04T15:35:46.018Z,23.55
2023-03-04T15:38:13.612Z,22.55
2023-03-04T15:40:43.227Z,24.88
2023-03-04T15:43:20.483Z,20.58
2023-03-04T15:45:48.593Z,26.65
2023-03-04T15:48:17.182Z,23.52
2023-03-04T15:51:04.859Z,24.80
2023-03-04T15:53:34.629Z,26.38
2023-03-04T15:56:02.827Z,34.33
2023-03-04T15:58:31.680Z,48.72
2023-03-04T16:01:00.158Z,32.67
2023-03-04T16:03:27.735Z,31.67
2023-03-04T16:05:55.221Z,26.90
2023-03-04T16:08:25.054Z,38.47
2023-03-04T16:10:53.675Z,28.88
2023-03-04T16:13:22.761Z,30.23
2023-03-04T16:15:50.747Z,29.25
2023-03-04T16:18:18.370Z,25.95
2023-03-04T16:20:47.191Z,26.67
2023-03-04T16:23:16.061Z,29.38
2023-03-04T16:25:44.317Z,30.05
2023-03-04T16:28:12.452Z,25.10
2023-03-04T16:30:40.314Z,26.75
2023-03-04T16:33:07.817Z,28.23
2023-03-04T16:35:37.123Z,28.42
2023-03-04T16:38:07.284Z,30.60
2023-03-04T16:40:34.793Z,30.05
2023-03-04T16:43:02.344Z,36.15
2023-03-04T16:45:32.805Z,34.67
2023-03-04T16:48:00.240Z,35.38
2023-03-04T16:50:30.006Z,32.97
2023-03-04T16:52:57.639Z,35.53
2023-03-04T16:55:26.317Z,35.58
2023-03-04T16:57:54.618Z,33.28
2023-03-04T17:00:23.240Z,34.65
2023-03-04T17:02:55.003Z,37.95
2023-03-04T17:05:23.855Z,39.83
2023-03-04T17:07:51.243Z,43.15
2023-03-04T17:10:18.968Z,50.17
2023-03-04T17:12:46.463Z,46.83
2023-03-04T17:15:14.736Z,45.78
2023-03-04T17:17:43.029Z,40.58
2023-03-04T17:20:11.925Z,34.92
2023-03-04T17:22:39.442Z,37.78
2023-03-04T17:25:07.100Z,61.92
2023-03-04T17:27:34.633Z,44.63
2023-03-04T17:30:02.047Z,34.42
2023-03-04T17:32:32.488Z,43.17
2023-03-04T17:35:00.492Z,42.92
2023-03-04T17:37:28.263Z,37.25
2023-03-04T17:39:55.723Z,30.73
2023-03-04T17:42:23.183Z,34.53
2023-03-04T17:44:50.651Z,33.20
2023-03-04T17:47:18.087Z,45.45
2023-03-04T17:49:45.519Z,47.63
2023-03-04T17:52:13.097Z,46.33
2023-03-04T17:54:40.590Z,49.90
2023-03-04T17:57:10.021Z,49.55
2023-03-04T17:59:37.613Z,53.28
2023-03-04T18:02:06.082Z,45.92
2023-03-04T18:04:33.576Z,39.17
2023-03-04T18:07:00.956Z,41.80
2023-03-04T18:09:28.550Z,41.45
2023-03-04T18:11:56.034Z,39.70
2023-03-04T18:14:23.463Z,37.22
2023-03-04T18:16:50.862Z,40.47
2023-03-04T18:19:18.862Z,43.92
2023-03-04T18:21:46.334Z,40.83
2023-03-04T18:24:13.893Z,35.85
2023-03-04T18:26:41.284Z,40.33
2023-03-04T18:29:08.930Z,43.63
2023-03-04T18:31:37.007Z,48.33
2023-03-04T18:34:05.143Z,44.03
2023-03-04T18:36:32.557Z,37.25
2023-03-04T18:39:00.334Z,38.25
2023-03-04T18:41:28.242Z,37.15
2023-03-04T18:43:56.259Z,33.83
2023-03-04T18:46:31.690Z,34.65
2023-03-04T18:49:08.687Z,34.25
2023-03-04T18:51:36.267Z,36.60
2023-03-04T18:54:03.637Z,35.05
2023-03-04T18:56:51.429Z,36.70
2023-03-04T18:59:24.556Z,34.38
2023-03-04T19:01:52.872Z,34.10
2023-03-04T19:04:21.481Z,39.47
2023-03-04T19:06:49.143Z,40.50
2023-03-04T19:09:16.537Z,39.47
2023-03-04T19:11:44.038Z,35.13
2023-03-04T19:14:11.957Z,35.30
2023-03-04T19:16:40.188Z,39.45
2023-03-04T19:19:07.655Z,37.65
2023-03-04T19:21:41.067Z,32.88
2023-03-04T19:24:09.043Z,38.70
2023-03-04T19:26:36.614Z,35.80
2023-03-04T19:29:05.175Z,41.13
2023-03-04T19:31:33.937Z,40.20
2023-03-04T19:34:01.419Z,42.40
2023-03-04T19:36:28.872Z,43.88
2023-03-04T19:38:56.335Z,40.78
2023-03-04T19:41:23.804Z,40.28
2023-03-04T19:43:51.444Z,41.22
2023-03-04T19:46:18.960Z,43.45
2023-03-04T19:48:50.122Z,43.15
2023-03-04T19:51:19.788Z,38.60
2023-03-04T19:53:47.596Z,38.75
2023-03-04T19:56:15.169Z,40.53
2023-03-04T19:58:42.737Z,36.80
2023-03-04T20:01:28.093Z,39.63
2023-03-04T20:04:00.175Z,37.15
2023-03-04T20:06:28.307Z,43.63
2023-03-04T20:08:59.652Z,37.72
2023-03-04T20:11:28.228Z,38.30
2023-03-04T20:13:58.339Z,37.60
2023-03-04T20:16:26.295Z,38.63
2023-03-04T20:18:57.036Z,35.30
2023-03-04T20:21:25.063Z,41.20
2023-03-04T20:23:52.486Z,37.97
2023-03-04T20:26:20.005Z,41.13
2023-03-04T20:28:50.743Z,39.63
2023-03-04T20:31:23.926Z,42.70
2023-03-04T20:33:51.915Z,38.78
2023-03-04T20:36:20.049Z,39.47
2023-03-04T20:38:48.042Z,39.30
2023-03-04T20:41:15.533Z,40.60
2023-03-04T20:43:43.008Z,37.45
2023-03-04T20:46:29.109Z,39.63
2023-03-04T20:49:07.462Z,36.60
2023-03-04T20:51:35.488Z,37.80
2023-03-04T20:54:03.486Z,39.08
2023-03-04T20:56:31.056Z,36.58
2023-03-04T20:59:00.484Z,34.97
2023-03-04T21:01:28.305Z,35.22
2023-03-04T21:03:55.825Z,35.20
2023-03-04T21:06:25.301Z,34.25
2023-03-04T21:08:52.757Z,38.30
2023-03-04T21:11:20.472Z,42.08
2023-03-04T21:13:53.900Z,37.88
2023-03-04T21:16:21.459Z,36.35
2023-03-04T21:18:48.853Z,39.17
2023-03-04T21:21:27.297Z,38.65
2023-03-04T21:23:55.656Z,40.60
2023-03-04T21:26:23.604Z,36.30
2023-03-04T21:28:52.253Z,37.50
2023-03-04T21:31:20.941Z,34.80
2023-03-04T21:33:48.814Z,37.47
2023-03-04T21:36:16.252Z,37.30
2023-03-04T21:38:44.569Z,36.65
2023-03-04T21:41:13.086Z,39.53
2023-03-04T21:43:40.680Z,36.53
2023-03-04T21:46:09.736Z,38.65
2023-03-04T21:48:37.724Z,38.17
2023-03-04T21:51:06.446Z,41.25
2023-03-04T21:53:34.964Z,42.70
2023-03-04T21:56:02.875Z,38.33
2023-03-04T21:58:30.504Z,38.17
2023-03-04T22:00:59.188Z,34.80
2023-03-04T22:03:27.289Z,34.58
2023-03-04T22:05:54.729Z,35.80
2023-03-04T22:08:22.337Z,40.22
2023-03-04T22:10:49.835Z,36.80
2023-03-04T22:13:17.293Z,35.67
2023-03-04T22:15:45.407Z,37.17
2023-03-04T22:18:14.177Z,35.00
2023-03-04T22:20:43.058Z,36.67
2023-03-04T22:23:11.290Z,36.47
2023-03-04T22:25:40.090Z,34.63
2023-03-04T22:28:08.049Z,40.67
2023-03-04T22:30:36.401Z,35.53
2023-03-04T22:33:03.833Z,37.35
2023-03-04T22:35:31.387Z,33.92
2023-03-04T22:37:58.966Z,37.88
2023-03-04T22:40:26.599Z,37.72
2023-03-04T22:42:54.067Z,32.83
2023-03-04T22:45:21.699Z,36.78
2023-03-04T22:47:52.922Z,37.30
2023-03-04T22:50:21.777Z,36.65
2023-03-04T22:52:49.335Z,39.03
2023-03-04T22:55:17.901Z,35.55
2023-03-04T22:57:45.599Z,34.55
2023-03-04T23:00:16.145Z,35.13
2023-03-04T23:02:44.127Z,34.08
2023-03-04T23:05:11.802Z,41.15
2023-03-04T23:07:39.544Z,37.22
2023-03-04T23:10:08.135Z,35.22
2023-03-04T23:12:36.365Z,37.60
2023-03-04T23:15:04.382Z,38.40
2023-03-04T23:17:31.876Z,36.80
2023-03-04T23:19:59.301Z,39.08
2023-03-04T23:22:26.873Z,35.85
2023-03-04T23:24:54.316Z,38.42
2023-03-04T23:27:21.751Z,36.72
2023-03-04T23:29:49.167Z,39.40
2023-03-04T23:32:16.798Z,39.00
2023-03-04T23:34:44.245Z,39.53
2023-03-04T23:37:11.651Z,41.38
2023-03-04T23:39:39.044Z,43.00
2023-03-04T23:42:06.565Z,37.35
2023-03-04T23:44:33.923Z,37.40
2023-03-04T23:47:02.168Z,41.72
2023-03-04T23:49:29.545Z,39.10
2023-03-04T23:51:57.202Z,39.65
2023-03-04T23:54:24.636Z,39.53
2023-03-04T23:56:52.029Z,36.80
2023-03-04T23:59:19.481Z,36.58
